Terminal Aerodrome Forecast
Issued by NWS Sioux Falls, SD

Home | Current Version | Previous Version | Graphics & Text | Print | Product List | Glossary Off
Versions: 1 2 3 4 5 6 7 8 9 10 11 12

567
FTUS43 KFSD 251120
TAFHON
TAF
KHON 251120Z 2512/2612 30008KT P6SM SKC
     FM252300 33010KT P6SM SCT080
     FM260200 02006KT P6SM SCT080=

USA.gov is the U.S. government's official web portal to all federal, state and local government web resources and services.